^^
Grace C. Lehan Memorial Weather Station Historical Data
Daily Summary for September 28, 2022 Units:  Metric    English   Both
Daily Weekly Monthly Yearly
  High: Low: Average:
Temperature: 21.3 °C 9.9 °C 15.6 °C
Dew Point: 13.7 °C 8.7 °C 11.1 °C
Humidity: 93% 57% 76%
Wind Speed: 9.3km/h 0km/h 0.6km/h
Wind Gust: 22.5km/h - -
Wind- - WNW
Pressure: 1022.6 hPa 1012.4 hPa -
Precipitation: 0 mm    
 
 
Tabular Data for September 28, 2022
Time Temperature Dew Point Pressure Wind Wind Speed Wind Gust Humidity Rainfall Rate (Hourly) solar
00:00 13 °C 10.2 °C 1012.4 hPa Calm   4.8 km/h 83% 0 mm 0 W/m2
00:09 12.9 °C 10.1 °C 1012.4 hPa Calm     83% 0 mm 0 W/m2
00:14 12.9 °C 10.1 °C 1012.4 hPa Calm     83% 0 mm 0 W/m2
00:19 12.8 °C 10.2 °C 1012.4 hPa Calm     83.8% 0 mm 0 W/m2
00:24 12.8 °C 10.2 °C 1012.4 hPa West 0.8 km/h 6.4 km/h 84% 0 mm 0 W/m2
00:29 12.8 °C 10.2 °C 1012.4 hPa WSW 1.1 km/h 14.5 km/h 84% 0 mm 0 W/m2
00:34 12.8 °C 10.2 °C 1012.4 hPa SW 0.3 km/h 14.5 km/h 84% 0 mm 0 W/m2
00:39 12.8 °C 10.2 °C 1012.4 hPa Calm   9.7 km/h 84% 0 mm 0 W/m2
00:44 12.8 °C 10.2 °C 1012.8 hPa SW 0.3 km/h 9.7 km/h 84% 0 mm 0 W/m2
00:49 12.8 °C 10.2 °C 1012.8 hPa Calm   9.7 km/h 84% 0 mm 0 W/m2
00:54 12.8 °C 10.2 °C 1012.8 hPa Calm   9.7 km/h 84% 0 mm 0 W/m2
00:59 12.8 °C 10.2 °C 1012.8 hPa SW 0.2 km/h 9.7 km/h 84% 0 mm 0 W/m2
01:04 12.8 °C 10.1 °C 1012.8 hPa Calm   9.7 km/h 84% 0 mm 0 W/m2
01:09 12.7 °C 10.1 °C 1012.8 hPa Calm   3.2 km/h 84% 0 mm 0 W/m2
01:14 12.7 °C 10.1 °C 1013.1 hPa Calm   3.2 km/h 84% 0 mm 0 W/m2
01:19 12.7 °C 10.1 °C 1013.1 hPa Calm   3.2 km/h 84% 0 mm 0 W/m2
01:24 12.7 °C 10 °C 1013.1 hPa Calm   3.2 km/h 84% 0 mm 0 W/m2
01:29 12.6 °C 9.9 °C 1012.8 hPa Calm   3.2 km/h 84% 0 mm 0 W/m2
01:34 12.5 °C 9.8 °C 1012.8 hPa Calm   3.2 km/h 84% 0 mm 0 W/m2
01:39 12.4 °C 9.8 °C 1013.1 hPa Calm     84% 0 mm 0 W/m2
01:44 12.3 °C 9.8 °C 1013.1 hPa Calm     84.4% 0 mm 0 W/m2
01:49 12.3 °C 9.8 °C 1013.1 hPa Calm     85% 0 mm 0 W/m2
01:54 12.2 °C 9.8 °C 1013.1 hPa Calm     85% 0 mm 0 W/m2
01:59 12.2 °C 9.7 °C 1013.1 hPa Calm     85% 0 mm 0 W/m2
02:04 12.1 °C 9.6 °C 1013.1 hPa Calm     85% 0 mm 0 W/m2
02:09 12 °C 9.6 °C 1013.4 hPa Calm     85% 0 mm 0 W/m2
02:14 11.9 °C 9.5 °C 1013.4 hPa Calm     85% 0 mm 0 W/m2
02:19 11.8 °C 9.6 °C 1013.4 hPa Calm     85.8% 0 mm 0 W/m2
02:24 11.8 °C 9.5 °C 1013.4 hPa Calm     86% 0 mm 0 W/m2
02:29 11.7 °C 9.4 °C 1013.1 hPa Calm     86% 0 mm 0 W/m2
02:34 11.7 °C 9.4 °C 1013.4 hPa Calm     86.1% 0 mm 0 W/m2
02:39 11.6 °C 9.5 °C 1013.1 hPa Calm     87% 0 mm 0 W/m2
02:44 11.6 °C 9.4 °C 1013.4 hPa Calm     87% 0 mm 0 W/m2
02:49 11.6 °C 9.4 °C 1013.4 hPa Calm     87% 0 mm 0 W/m2
02:54 11.6 °C 9.4 °C 1013.4 hPa Calm     87% 0 mm 0 W/m2
02:59 11.6 °C 9.4 °C 1013.4 hPa Calm     87% 0 mm 0 W/m2
03:04 11.6 °C 9.4 °C 1013.4 hPa Calm     87% 0 mm 0 W/m2
03:09 11.5 °C 9.4 °C 1013.4 hPa Calm     87% 0 mm 0 W/m2
03:14 11.4 °C 9.3 °C 1013.4 hPa Calm     87% 0 mm 0 W/m2
03:19 11.3 °C 9.3 °C 1013.4 hPa Calm     87% 0 mm 0 W/m2
03:24 11.3 °C 9.4 °C 1013.1 hPa Calm     87.9% 0 mm 0 W/m2
03:29 11.2 °C 9.3 °C 1013.1 hPa Calm     88% 0 mm 0 W/m2
03:34 11.2 °C 9.3 °C 1013.1 hPa Calm     88% 0 mm 0 W/m2
03:39 11.1 °C 9.2 °C 1013.4 hPa Calm     88% 0 mm 0 W/m2
03:44 11.1 °C 9.2 °C 1013.4 hPa Calm     88.5% 0 mm 0 W/m2
03:49 11 °C 9.3 °C 1013.4 hPa Calm     89.4% 0 mm 0 W/m2
03:54 11 °C 9.3 °C 1013.4 hPa Calm     89% 0 mm 0 W/m2
03:59 11 °C 9.2 °C 1013.4 hPa Calm     89% 0 mm 0 W/m2
04:00 10.9 °C 9.2 °C 1013.4 hPa Calm     89% 0 mm 0 W/m2
04:09 10.9 °C 9.1 °C 1013.4 hPa SW 0.2 km/h 4.8 km/h 89% 0 mm 0 W/m2
04:14 10.8 °C 9.1 °C 1013.4 hPa Calm   4.8 km/h 89% 0 mm 0 W/m2
04:19 10.7 °C 9 °C 1013.8 hPa Calm   4.8 km/h 89% 0 mm 0 W/m2
04:24 10.7 °C 9.2 °C 1013.8 hPa Calm   4.8 km/h 90% 0 mm 0 W/m2
04:29 10.7 °C 9.2 °C 1013.8 hPa Calm   4.8 km/h 90% 0 mm 0 W/m2
04:33 10.7 °C 9.1 °C 1013.8 hPa Calm   4.8 km/h 90% 0 mm 0 W/m2
04:39 10.6 °C 9.1 °C 1013.8 hPa Calm     90% 0 mm 0 W/m2
04:44 10.6 °C 9 °C 1013.8 hPa Calm     90% 0 mm 0 W/m2
04:49 10.6 °C 8.9 °C 1013.8 hPa Calm     90% 0 mm 0 W/m2
04:54 10.5 °C 8.9 °C 1013.8 hPa WSW 0.6 km/h 4.8 km/h 90% 0 mm 0 W/m2
04:59 10.5 °C 9.1 °C 1013.8 hPa WSW 0.2 km/h 4.8 km/h 90.7% 0 mm 0 W/m2
05:04 10.6 °C 9.1 °C 1013.8 hPa Calm   4.8 km/h 91% 0 mm 0 W/m2
05:09 10.6 °C 9.2 °C 1013.8 hPa Calm     91% 0 mm 0 W/m2
05:14 10.6 °C 9.2 °C 1013.8 hPa Calm     91% 0 mm 0 W/m2
05:19 10.5 °C 9.1 °C 1013.8 hPa Calm     91% 0 mm 0 W/m2
05:24 10.4 °C 9.1 °C 1014.1 hPa Calm     91% 0 mm 0 W/m2
05:29 10.4 °C 9 °C 1014.1 hPa Calm     91% 0 mm 0 W/m2
05:34 10.4 °C 9 °C 1014.1 hPa Calm     91% 0 mm 0 W/m2
05:39 10.4 °C 9 °C 1014.1 hPa Calm     91% 0 mm 0 W/m2
05:44 10.3 °C 8.9 °C 1014.1 hPa WSW 0.2 km/h 4.8 km/h 91% 0 mm 0 W/m2
05:49 10.3 °C 8.9 °C 1014.1 hPa Calm   4.8 km/h 91% 0 mm 0 W/m2
05:54 10.3 °C 8.9 °C 1014.1 hPa Calm   4.8 km/h 91% 0 mm 0 W/m2
05:59 10.3 °C 8.9 °C 1014.1 hPa Calm   4.8 km/h 91% 0 mm 0 W/m2
06:04 10.3 °C 8.9 °C 1014.1 hPa Calm   4.8 km/h 91% 0 mm 0 W/m2
06:09 10.3 °C 8.9 °C 1014.1 hPa Calm     91.5% 0 mm 0 W/m2
06:14 10.3 °C 9.1 °C 1014.4 hPa Calm     92% 0 mm 0 W/m2
06:19 10.3 °C 9.1 °C 1014.4 hPa Calm     92% 0 mm 0 W/m2
06:24 10.3 °C 9 °C 1014.4 hPa Calm     91.8% 0 mm 0 W/m2
06:28 10.2 °C 8.8 °C 1014.4 hPa Calm     91% 0 mm 0 W/m2
06:30 10.2 °C 8.8 °C 1014.4 hPa Calm     91% 0 mm 0 W/m2
07:00 10.1 °C 8.8 °C 1014.8 hPa Calm     92% 0 mm 2 W/m2
07:30 9.9 °C 8.7 °C 1015.1 hPa Calm     92% 0 mm 12 W/m2
08:04 10.8 °C 9.7 °C 1015.1 hPa Calm     92.9% 0 mm 23 W/m2
08:09 10.9 °C 9.9 °C 1015.5 hPa WSW 0.2 km/h 3.2 km/h 93% 0 mm 23 W/m2
08:14 11.1 °C 10 °C 1015.5 hPa WSW 1 km/h 8 km/h 92.8% 0 mm 25 W/m2
08:19 11.3 °C 10.1 °C 1015.5 hPa WSW 1.6 km/h 14.5 km/h 92% 0 mm 26 W/m2
08:24 11.5 °C 10.2 °C 1015.5 hPa West 0.3 km/h 14.5 km/h 91.7% 0 mm 28 W/m2
08:29 11.7 °C 10.2 °C 1015.5 hPa Calm   14.5 km/h 91% 0 mm 32 W/m2
08:34 11.8 °C 10.3 °C 1015.5 hPa West 0.2 km/h 14.5 km/h 90.6% 0 mm 35 W/m2
08:39 12 °C 10.4 °C 1015.5 hPa Calm   3.2 km/h 89.6% 0 mm 42 W/m2
08:44 12.2 °C 10.4 °C 1015.5 hPa Calm   3.2 km/h 89% 0 mm 49 W/m2
08:49 12.4 °C 10.5 °C 1015.8 hPa Calm   3.2 km/h 88.2% 0 mm 54 W/m2
08:54 12.6 °C 10.6 °C 1015.5 hPa Calm   3.2 km/h 87.7% 0 mm 63 W/m2
08:59 12.8 °C 10.8 °C 1015.8 hPa Calm   3.2 km/h 87.1% 0 mm 93 W/m2
09:04 13.1 °C 10.9 °C 1015.8 hPa Calm   3.2 km/h 86.7% 0 mm 417 W/m2
09:09 13.4 °C 11.2 °C 1015.8 hPa Calm     86% 0 mm 436 W/m2
09:14 14.1 °C 11.7 °C 1015.8 hPa Calm     85.1% 0 mm 450 W/m2
09:19 14.8 °C 12 °C 1015.8 hPa Calm     82.9% 0 mm 468 W/m2
09:24 15.7 °C 12.4 °C 1015.8 hPa Calm     80.6% 0 mm 490 W/m2
09:29 16.6 °C 12.4 °C 1015.8 hPa Calm     76.8% 0 mm 504 W/m2
09:34 17.2 °C 12.6 °C 1015.8 hPa Calm     74.6% 0 mm 522 W/m2
09:39 17.8 °C 13 °C 1016.1 hPa Calm     73.4% 0 mm 534 W/m2
09:44 18.3 °C 13.2 °C 1016.1 hPa Calm     71.9% 0 mm 543 W/m2
09:49 18.8 °C 13 °C 1016.1 hPa West 0.8 km/h 4.8 km/h 69% 0 mm 552 W/m2
09:54 19.1 °C 13.2 °C 1016.1 hPa West 0.8 km/h 9.7 km/h 68.8% 0 mm 563 W/m2
09:59 19.2 °C 12.8 °C 1016.1 hPa West 2.9 km/h 14.5 km/h 66.3% 0 mm 575 W/m2
10:04 19.3 °C 12.6 °C 1016.1 hPa WNW 2.7 km/h 14.5 km/h 65.2% 0 mm 584 W/m2
10:09 19.4 °C 12.8 °C 1016.1 hPa WNW 0.2 km/h 11.3 km/h 65.6% 0 mm 598 W/m2
10:14 19.6 °C 12.8 °C 1016.5 hPa WNW 1.1 km/h 11.3 km/h 65% 0 mm 606 W/m2
10:19 19.7 °C 12.9 °C 1016.5 hPa WNW 1.9 km/h 11.3 km/h 65.1% 0 mm 626 W/m2
10:24 19.9 °C 13.3 °C 1016.5 hPa WNW 1.1 km/h 11.3 km/h 65.8% 0 mm 636 W/m2
10:29 20.1 °C 13.3 °C 1016.5 hPa WNW 0.8 km/h 11.3 km/h 65.1% 0 mm 663 W/m2
10:34 20.2 °C 13.2 °C 1016.5 hPa Calm   11.3 km/h 64% 0 mm 663 W/m2
10:39 20.3 °C 13 °C 1016.5 hPa Calm   3.2 km/h 62.8% 0 mm 659 W/m2
10:44 20.5 °C 13.1 °C 1016.5 hPa WNW 0.2 km/h 3.2 km/h 62.6% 0 mm 671 W/m2
10:49 20.7 °C 13.1 °C 1016.5 hPa West 0.6 km/h 8 km/h 61.7% 0 mm 677 W/m2
10:54 21 °C 13.7 °C 1016.5 hPa West 0.3 km/h 9.7 km/h 62.8% 0 mm 691 W/m2
10:59 21.3 °C 13.5 °C 1016.5 hPa WSW 1.8 km/h 9.7 km/h 60.9% 0 mm 714 W/m2
11:04 21.3 °C 13.1 °C 1016.5 hPa West 5.1 km/h 16.1 km/h 59.4% 0 mm 715 W/m2
11:09 21.3 °C 13.3 °C 1016.5 hPa West 1.3 km/h 16.1 km/h 60.3% 0 mm 722 W/m2
11:14 21.3 °C 13.3 °C 1016.8 hPa WNW 1.9 km/h 16.1 km/h 60.4% 0 mm 738 W/m2
11:19 21.2 °C 12.8 °C 1016.8 hPa WNW 0.3 km/h 16.1 km/h 58.9% 0 mm 624 W/m2
11:24 21.1 °C 13.1 °C 1016.8 hPa WNW 2.4 km/h 16.1 km/h 60.4% 0 mm 659 W/m2
11:29 20.9 °C 12.9 °C 1016.8 hPa WNW 3.5 km/h 16.1 km/h 59.9% 0 mm 650 W/m2
11:34 20.8 °C 12.8 °C 1016.8 hPa WNW 0.2 km/h 16.1 km/h 60.2% 0 mm 492 W/m2
11:39 20.8 °C 13.4 °C 1016.8 hPa NNW 2.4 km/h 14.5 km/h 62.3% 0 mm 492 W/m2
11:44 20.9 °C 13.2 °C 1016.8 hPa NNW 3.2 km/h 14.5 km/h 61.4% 0 mm 153 W/m2
11:49 20.9 °C 12.7 °C 1016.8 hPa NNW 1 km/h 14.5 km/h 59.6% 0 mm 151 W/m2
11:54 20.8 °C 12.9 °C 1016.8 hPa WNW 1.9 km/h 14.5 km/h 60.7% 0 mm 207 W/m2
11:59 20.7 °C 12.4 °C 1016.8 hPa NW 0.2 km/h 14.5 km/h 59.3% 0 mm 200 W/m2
12:04 20.6 °C 12.6 °C 1016.8 hPa West 9.3 km/h 11.3 km/h 60.4% 0 mm 227 W/m2
12:09 20.4 °C 12.4 °C 1016.8 hPa West 3.4 km/h 14.5 km/h 60% 0 mm 253 W/m2
12:10 20.4 °C 12.4 °C 1016.8 hPa WNW 0.6 km/h 14.5 km/h 60% 0 mm 171 W/m2
12:30 20.1 °C 12.6 °C 1016.8 hPa West 3.2 km/h 17.7 km/h 62% 0 mm 230 W/m2
14:00 19.6 °C 11.8 °C 1017.2 hPa WNW 3.2 km/h 17.7 km/h 61% 0 mm 115 W/m2
14:30 20.2 °C 11.7 °C 1016.8 hPa WNW 3.2 km/h 16.1 km/h 58% 0 mm 115 W/m2
15:00 20.8 °C 11.9 °C 1016.8 hPa WNW 4.8 km/h 22.5 km/h 57% 0 mm 123 W/m2
15:30 20.1 °C 11.6 °C 1017.2 hPa NW 3.2 km/h 17.7 km/h 58% 0 mm 110 W/m2
16:04 20.2 °C 12.1 °C 1017.2 hPa WNW 2.3 km/h 17.7 km/h 59.3% 0 mm 110 W/m2
16:09 20.3 °C 12.1 °C 1017.2 hPa WNW 2.3 km/h 14.5 km/h 59.1% 0 mm 72 W/m2
16:14 20.4 °C 12.4 °C 1017.2 hPa WNW 1.4 km/h 14.5 km/h 60.1% 0 mm 167 W/m2
16:19 20.6 °C 12.7 °C 1017.2 hPa WNW 0.8 km/h 14.5 km/h 60.4% 0 mm 167 W/m2
16:24 20.7 °C 12.1 °C 1017.2 hPa WNW 6.3 km/h 16.1 km/h 57.6% 0 mm 137 W/m2
16:29 20.8 °C 12 °C 1017.5 hPa West 0.5 km/h 16.1 km/h 57.3% 0 mm 107 W/m2
16:34 20.8 °C 12.2 °C 1017.5 hPa NNW 2.1 km/h 16.1 km/h 58% 0 mm 77 W/m2
16:39 20.7 °C 12.2 °C 1017.5 hPa WNW 1.4 km/h 11.3 km/h 58.2% 0 mm 76 W/m2
16:44 20.6 °C 12.2 °C 1017.5 hPa West 0.2 km/h 11.3 km/h 58.4% 0 mm 63 W/m2
16:49 20.6 °C 12.1 °C 1017.5 hPa WNW 0.5 km/h 11.3 km/h 58.3% 0 mm 62 W/m2
16:54 20.5 °C 12.1 °C 1017.5 hPa NNW 0.5 km/h 11.3 km/h 58.4% 0 mm 65 W/m2
16:59 20.4 °C 12.1 °C 1017.8 hPa NNW 0.5 km/h 11.3 km/h 58.6% 0 mm 47 W/m2
17:04 20.4 °C 12.2 °C 1017.8 hPa Calm   11.3 km/h 59.5% 0 mm 28 W/m2
17:09 20.3 °C 12.1 °C 1017.8 hPa NNW 0.2 km/h 3.2 km/h 59.3% 0 mm 26 W/m2
17:14 20.2 °C 12 °C 1017.8 hPa Calm   3.2 km/h 59% 0 mm 25 W/m2
17:19 20.2 °C 12.1 °C 1017.8 hPa Calm   3.2 km/h 59.7% 0 mm 25 W/m2
17:24 20.1 °C 12.2 °C 1017.8 hPa Calm   3.2 km/h 60.2% 0 mm 25 W/m2
17:29 20.1 °C 12.2 °C 1018.2 hPa NW 0.5 km/h 4.8 km/h 60.8% 0 mm 25 W/m2
17:34 19.9 °C 12.2 °C 1018.2 hPa Calm   4.8 km/h 61% 0 mm 16 W/m2
17:39 19.9 °C 12.1 °C 1018.2 hPa Calm     61% 0 mm 25 W/m2
17:44 19.8 °C 12.1 °C 1018.5 hPa Calm   1.6 km/h 61.3% 0 mm 26 W/m2
17:49 19.7 °C 12.2 °C 1018.5 hPa Calm   1.6 km/h 62% 0 mm 23 W/m2
17:54 19.6 °C 12.1 °C 1018.5 hPa Calm   1.6 km/h 62% 0 mm 23 W/m2
17:59 19.5 °C 12.2 °C 1018.5 hPa Calm   1.6 km/h 62.8% 0 mm 21 W/m2
18:04 19.4 °C 12.2 °C 1018.5 hPa Calm   1.6 km/h 62.8% 0 mm 16 W/m2
18:09 19.3 °C 12.2 °C 1018.5 hPa Calm     63.1% 0 mm 16 W/m2
18:14 19.3 °C 12.3 °C 1018.5 hPa Calm     64.3% 0 mm 12 W/m2
18:19 19.2 °C 12.6 °C 1018.5 hPa Calm     65.7% 0 mm 7 W/m2
18:24 19.1 °C 12.8 °C 1018.5 hPa Calm     67% 0 mm 5 W/m2
18:29 18.9 °C 12.7 °C 1018.5 hPa Calm     67% 0 mm 0 W/m2
18:34 18.8 °C 12.6 °C 1018.8 hPa NW 0.2 km/h 3.2 km/h 67% 0 mm 0 W/m2
18:39 18.7 °C 12.5 °C 1018.8 hPa NW 0.3 km/h 8 km/h 67% 0 mm 0 W/m2
18:44 18.6 °C 12.4 °C 1018.8 hPa NW 0.2 km/h 8 km/h 67% 0 mm 0 W/m2
18:49 18.6 °C 12.3 °C 1018.8 hPa WNW 0.8 km/h 9.7 km/h 67% 0 mm 0 W/m2
18:54 18.5 °C 12.2 °C 1019.2 hPa WNW 1.6 km/h 9.7 km/h 67% 0 mm 0 W/m2
18:59 18.4 °C 12.2 °C 1019.2 hPa WNW 1.1 km/h 9.7 km/h 67% 0 mm 0 W/m2
19:04 18.3 °C 12.2 °C 1019.2 hPa WNW 0.2 km/h 9.7 km/h 67.2% 0 mm 0 W/m2
19:09 18.3 °C 12.3 °C 1019.5 hPa WNW 0.2 km/h 3.2 km/h 68% 0 mm 0 W/m2
19:14 18.2 °C 12.1 °C 1019.9 hPa WNW 0.6 km/h 6.4 km/h 67.4% 0 mm 0 W/m2
19:19 18.2 °C 12.2 °C 1019.9 hPa WNW 0.3 km/h 6.4 km/h 68% 0 mm 0 W/m2
19:24 18.1 °C 12.1 °C 1019.9 hPa Calm   6.4 km/h 68% 0 mm 0 W/m2
19:29 18 °C 12.2 °C 1019.9 hPa WNW 0.3 km/h 6.4 km/h 68.7% 0 mm 0 W/m2
19:34 17.9 °C 12.1 °C 1019.9 hPa WNW 0.2 km/h 6.4 km/h 69% 0 mm 0 W/m2
19:39 17.8 °C 12 °C 1019.9 hPa WNW 0.2 km/h 4.8 km/h 69% 0 mm 0 W/m2
19:44 17.7 °C 11.9 °C 1020.2 hPa WNW 0.3 km/h 6.4 km/h 69% 0 mm 0 W/m2
19:49 17.6 °C 11.9 °C 1020.5 hPa Calm   6.4 km/h 69.6% 0 mm 0 W/m2
19:54 17.4 °C 11.9 °C 1020.5 hPa WNW 0.3 km/h 6.4 km/h 70% 0 mm 0 W/m2
19:59 17.3 °C 11.8 °C 1020.5 hPa Calm   6.4 km/h 70% 0 mm 0 W/m2
20:04 17.1 °C 11.8 °C 1020.5 hPa Calm     71% 0 mm 0 W/m2
20:09 17.1 °C 11.8 °C 1020.9 hPa WNW 0.5 km/h 8 km/h 71% 0 mm 0 W/m2
20:14 16.9 °C 11.7 °C 1020.9 hPa WNW 0.2 km/h 8 km/h 71% 0 mm 0 W/m2
20:19 16.8 °C 11.7 °C 1020.9 hPa WNW 0.3 km/h 8 km/h 71.8% 0 mm 0 W/m2
20:24 16.8 °C 11.7 °C 1020.9 hPa Calm   8 km/h 72% 0 mm 0 W/m2
20:29 16.7 °C 11.9 °C 1020.9 hPa WNW 0.8 km/h 8 km/h 72.9% 0 mm 0 W/m2
20:34 16.7 °C 11.8 °C 1021.2 hPa WNW 1 km/h 8 km/h 73% 0 mm 0 W/m2
20:39 16.7 °C 11.8 °C 1021.2 hPa Calm   8 km/h 73% 0 mm 0 W/m2
20:44 16.7 °C 11.8 °C 1021.2 hPa WNW 0.2 km/h 8 km/h 73% 0 mm 0 W/m2
20:49 16.7 °C 11.8 °C 1021.2 hPa Calm   8 km/h 73% 0 mm 0 W/m2
20:54 16.7 °C 11.8 °C 1021.2 hPa WNW 0.3 km/h 8 km/h 72.9% 0 mm 0 W/m2
20:59 16.7 °C 11.7 °C 1021.2 hPa NW 0.8 km/h 9.7 km/h 72.5% 0 mm 0 W/m2
21:04 16.7 °C 11.6 °C 1021.2 hPa NW 1.1 km/h 9.7 km/h 72% 0 mm 0 W/m2
21:09 16.7 °C 11.6 °C 1021.2 hPa NW 1.9 km/h 8 km/h 72% 0 mm 0 W/m2
21:14 16.7 °C 11.6 °C 1021.2 hPa NNW 0.3 km/h 8 km/h 72% 0 mm 0 W/m2
21:19 16.7 °C 11.5 °C 1021.6 hPa NNW 0.5 km/h 8 km/h 71.6% 0 mm 0 W/m2
21:24 16.7 °C 11.4 °C 1021.6 hPa NNW 0.5 km/h 8 km/h 71.2% 0 mm 0 W/m2
21:29 16.7 °C 11.3 °C 1021.2 hPa NW 0.6 km/h 8 km/h 70.7% 0 mm 0 W/m2
21:34 16.7 °C 11.2 °C 1021.6 hPa NW 1.9 km/h 9.7 km/h 70% 0 mm 0 W/m2
21:39 16.7 °C 11.2 °C 1021.6 hPa NW 1.4 km/h 16.1 km/h 70% 0 mm 0 W/m2
21:44 16.7 °C 11.2 °C 1021.6 hPa NW 1.8 km/h 16.1 km/h 70% 0 mm 0 W/m2
21:49 16.6 °C 11.1 °C 1021.6 hPa NW 0.5 km/h 16.1 km/h 70% 0 mm 0 W/m2
21:54 16.6 °C 11.1 °C 1021.6 hPa NW 1.6 km/h 16.1 km/h 70.2% 0 mm 0 W/m2
21:59 16.4 °C 11.1 °C 1021.6 hPa NNW 1.8 km/h 16.1 km/h 70.9% 0 mm 0 W/m2
22:04 16.3 °C 11.1 °C 1021.6 hPa NW 0.8 km/h 16.1 km/h 71% 0 mm 0 W/m2
22:09 16.2 °C 10.9 °C 1021.9 hPa NW 0.2 km/h 8 km/h 71% 0 mm 0 W/m2
22:14 16.2 °C 10.9 °C 1021.9 hPa Calm   8 km/h 71% 0 mm 0 W/m2
22:19 16.1 °C 10.8 °C 1021.9 hPa Calm   8 km/h 71.2% 0 mm 0 W/m2
22:24 16 °C 10.8 °C 1022.2 hPa NW 0.2 km/h 8 km/h 71.2% 0 mm 0 W/m2
22:29 15.9 °C 10.8 °C 1022.2 hPa NW 0.5 km/h 8 km/h 72% 0 mm 0 W/m2
22:34 15.8 °C 10.8 °C 1022.2 hPa NW 0.3 km/h 8 km/h 72.1% 0 mm 0 W/m2
22:39 15.7 °C 10.9 °C 1022.2 hPa NNW 0.2 km/h 4.8 km/h 73% 0 mm 0 W/m2
22:44 15.6 °C 10.8 °C 1022.2 hPa NNW 0.8 km/h 9.7 km/h 73.1% 0 mm 0 W/m2
22:49 15.5 °C 10.9 °C 1022.2 hPa NNW 0.8 km/h 9.7 km/h 74% 0 mm 0 W/m2
22:54 15.4 °C 10.8 °C 1022.2 hPa NNW 0.2 km/h 9.7 km/h 74% 0 mm 0 W/m2
22:59 15.3 °C 10.8 °C 1022.2 hPa NW 1.1 km/h 9.7 km/h 74.4% 0 mm 0 W/m2
23:04 15.3 °C 10.8 °C 1022.2 hPa NNW 1.6 km/h 9.7 km/h 75% 0 mm 0 W/m2
23:09 15.2 °C 10.8 °C 1022.2 hPa NNW 1.1 km/h 8 km/h 75.2% 0 mm 0 W/m2
23:14 15.1 °C 10.9 °C 1022.2 hPa NNW 0.8 km/h 8 km/h 75.8% 0 mm 0 W/m2
23:19 15.1 °C 10.9 °C 1022.2 hPa NW 1 km/h 8 km/h 76% 0 mm 0 W/m2
23:24 15 °C 10.8 °C 1022.2 hPa NW 0.5 km/h 8 km/h 76% 0 mm 0 W/m2
23:29 14.9 °C 10.9 °C 1022.2 hPa NW 0.2 km/h 8 km/h 76.7% 0 mm 0 W/m2
23:34 14.9 °C 10.9 °C 1022.2 hPa Calm   8 km/h 77% 0 mm 0 W/m2
23:37 14.8 °C 10.8 °C 1022.6 hPa Calm   1.6 km/h 77% 0 mm 0 W/m2
Hartford County Weather
Compliments of Weather Underground - 2 mb